Dunbar, NE (68346)

9:16 PM CST on February 09, 2016 (GMT -0600)
Dunbar Water Tower | | Change Station
CLOSE
Current Station
Personal Weather Station
Location: Dunbar, NE
Elevation: 1155 ft
Nearby Weather Stations

Elev 1155 ft 40.67 °N, 96.04 °W | Updated 5 minutes ago

Mostly Cloudy
Mostly Cloudy
15.4 °F
Feels Like 15 °F
N
0.0
Wind Variable Wind from WNW

Today
High -- | Low -- °F
--% Chance of Precip.
Yesterday
High -- | Low -- °F
Precip. -- in
Pressure 30.26 in
Visibility 10.0 miles
Clouds Mostly Cloudy 6000 ft
Windchill 15 °F
Dew Point 11 °F
Humidity 84%
Rainfall 0.00 in
Snow Depth Not available.
7:25 AM 5:51 PM
Waxing Crescent, 3% visible
METAR KAFK 100255Z AUTO 30004KT 10SM BKN060 M06/M11 A3026 RMK AO2 T10651110
Pressure 30.26 in
Visibility 10.0 miles
Clouds Mostly Cloudy 6000 ft
Windchill 15 °F
Dew Point 11 °F
Humidity 84%
Rainfall 0.00 in
Snow Depth Not available.
7:25 AM 5:51 PM
Waxing Crescent, 3% visible
METAR KAFK 100255Z AUTO 30004KT 10SM BKN060 M06/M11 A3026 RMK AO2 T10651110

10-Day Weather Forecast

Almanac

Astronomy

Feb. 09, 2016 Rise Set
Actual Time
Civil Twilight
Nautical Twilight
Astronomical Twilight
Moon
Length of Visible Light
Length of Day
Tomorrow will be .
, % of the Moon is Illuminated

Today's Extremes

State Highs State Lows

Community

WunderPhotos

Upload Photos

1,891,788 photos uploaded!

WunderBlog® & News

Nearby

Air Quality

  Air Quality AQ Index Pollutant
Not available.

Snow Depth

Station Depth Elevation

Earthquake Activity

City Distance Mag. Time & Date
Minimum magnitude displayed is 2.5.

Coastal Water Temperatures

Place Temperature

Stations

Nearby Weather Stations

Station Location Temp. Windchill Dew Point Humidity Wind Precip. Elev Updated Type
                   

Watches & Warnings

There are currently no watches in effect.